sensor_id;sensor_type;location;lat;lon;timestamp;temperature;humidity
10873;DHT22;34586;53.616;10.032;2023-06-19T00:01:51;20.40;1.00
10873;DHT22;34586;53.616;10.032;2023-06-19T00:04:17;20.50;1.00
10873;DHT22;34586;53.616;10.032;2023-06-19T00:06:42;20.40;1.00
10873;DHT22;34586;53.616;10.032;2023-06-19T00:09:08;20.40;1.00
10873;DHT22;34586;53.616;10.032;2023-06-19T00:11:34;20.50;1.00
10873;DHT22;34586;53.616;10.032;2023-06-19T00:14:00;20.40;1.00
10873;DHT22;34586;53.616;10.032;2023-06-19T00:16:26;20.40;1.00
10873;DHT22;34586;53.616;10.032;2023-06-19T00:18:52;20.40;1.00
10873;DHT22;34586;53.616;10.032;2023-06-19T00:21:22;20.50;1.00
10873;DHT22;34586;53.616;10.032;2023-06-19T00:23:49;20.50;1.00
10873;DHT22;34586;53.616;10.032;2023-06-19T00:26:15;20.60;1.00
10873;DHT22;34586;53.616;10.032;2023-06-19T00:28:41;20.60;1.00
10873;DHT22;34586;53.616;10.032;2023-06-19T00:31:09;20.60;1.00
10873;DHT22;34586;53.616;10.032;2023-06-19T00:33:34;20.50;95.40
10873;DHT22;34586;53.616;10.032;2023-06-19T00:36:00;20.50;99.90
10873;DHT22;34586;53.616;10.032;2023-06-19T00:38:26;20.50;84.00
10873;DHT22;34586;53.616;10.032;2023-06-19T00:40:52;20.50;99.90
10873;DHT22;34586;53.616;10.032;2023-06-19T00:43:17;20.50;98.00
10873;DHT22;34586;53.616;10.032;2023-06-19T00:45:43;20.50;50.10
10873;DHT22;34586;53.616;10.032;2023-06-19T00:48:09;20.50;18.80
10873;DHT22;34586;53.616;10.032;2023-06-19T00:50:35;20.50;28.20
10873;DHT22;34586;53.616;10.032;2023-06-19T00:53:04;20.50;55.70
10873;DHT22;34586;53.616;10.032;2023-06-19T00:55:30;20.50;9.50
10873;DHT22;34586;53.616;10.032;2023-06-19T00:57:58;20.50;27.70
10873;DHT22;34586;53.616;10.032;2023-06-19T01:00:24;20.50;1.00
10873;DHT22;34586;53.616;10.032;2023-06-19T01:02:50;20.50;8.00
10873;DHT22;34586;53.616;10.032;2023-06-19T01:05:16;20.50;13.70
10873;DHT22;34586;53.616;10.032;2023-06-19T01:10:20;20.50;1.00
10873;DHT22;34586;53.616;10.032;2023-06-19T01:12:57;20.60;1.00
10873;DHT22;34586;53.616;10.032;2023-06-19T01:15:25;20.50;1.00
10873;DHT22;34586;53.616;10.032;2023-06-19T01:17:52;20.50;1.00
10873;DHT22;34586;53.616;10.032;2023-06-19T01:20:18;20.50;25.90
10873;DHT22;34586;53.616;10.032;2023-06-19T01:22:43;20.50;8.60
10873;DHT22;34586;53.616;10.032;2023-06-19T01:25:10;20.50;1.00
10873;DHT22;34586;53.616;10.032;2023-06-19T01:27:36;20.50;1.00
10873;DHT22;34586;53.616;10.032;2023-06-19T01:30:03;20.50;18.50
10873;DHT22;34586;53.616;10.032;2023-06-19T01:35:16;20.60;1.00
10873;DHT22;34586;53.616;10.032;2023-06-19T01:37:43;20.60;1.00
10873;DHT22;34586;53.616;10.032;2023-06-19T01:40:11;20.60;1.00
10873;DHT22;34586;53.616;10.032;2023-06-19T01:42:39;20.60;1.00
10873;DHT22;34586;53.616;10.032;2023-06-19T01:45:05;20.70;1.00
10873;DHT22;34586;53.616;10.032;2023-06-19T01:47:32;20.60;1.00
10873;DHT22;34586;53.616;10.032;2023-06-19T01:49:57;20.60;1.00
10873;DHT22;34586;53.616;10.032;2023-06-19T01:52:24;20.60;1.00
10873;DHT22;34586;53.616;10.032;2023-06-19T01:54:50;20.60;1.00
10873;DHT22;34586;53.616;10.032;2023-06-19T01:57:16;20.60;1.00
10873;DHT22;34586;53.616;10.032;2023-06-19T01:59:41;20.60;1.00
10873;DHT22;34586;53.616;10.032;2023-06-19T02:02:07;20.60;1.00
10873;DHT22;34586;53.616;10.032;2023-06-19T02:04:33;20.60;1.00
10873;DHT22;34586;53.616;10.032;2023-06-19T02:06:59;20.60;1.00
10873;DHT22;34586;53.616;10.032;2023-06-19T02:09:24;20.60;1.00
10873;DHT22;34586;53.616;10.032;2023-06-19T02:11:50;20.60;1.00
10873;DHT22;34586;53.616;10.032;2023-06-19T02:14:16;20.60;1.00
10873;DHT22;34586;53.616;10.032;2023-06-19T02:16:41;20.60;1.00
10873;DHT22;34586;53.616;10.032;2023-06-19T02:19:10;20.50;1.00
10873;DHT22;34586;53.616;10.032;2023-06-19T02:21:36;20.50;1.00
10873;DHT22;34586;53.616;10.032;2023-06-19T02:24:02;20.50;1.00
10873;DHT22;34586;53.616;10.032;2023-06-19T02:26:28;20.50;1.00
10873;DHT22;34586;53.616;10.032;2023-06-19T02:28:55;20.60;1.00
10873;DHT22;34586;53.616;10.032;2023-06-19T02:31:22;20.50;1.00
10873;DHT22;34586;53.616;10.032;2023-06-19T02:33:47;20.60;1.00
10873;DHT22;34586;53.616;10.032;2023-06-19T02:36:13;20.50;1.00
10873;DHT22;34586;53.616;10.032;2023-06-19T02:38:43;20.50;1.00
10873;DHT22;34586;53.616;10.032;2023-06-19T02:41:09;20.50;1.00
10873;DHT22;34586;53.616;10.032;2023-06-19T02:43:34;20.50;1.00
10873;DHT22;34586;53.616;10.032;2023-06-19T02:46:00;20.50;1.00
10873;DHT22;34586;53.616;10.032;2023-06-19T02:48:27;20.50;1.00
10873;DHT22;34586;53.616;10.032;2023-06-19T02:50:52;20.40;1.00
10873;DHT22;34586;53.616;10.032;2023-06-19T02:53:18;20.40;1.00
10873;DHT22;34586;53.616;10.032;2023-06-19T02:55:43;20.40;1.00
10873;DHT22;34586;53.616;10.032;2023-06-19T02:58:09;20.40;1.00
10873;DHT22;34586;53.616;10.032;2023-06-19T03:00:34;20.30;1.00
10873;DHT22;34586;53.616;10.032;2023-06-19T03:03:00;20.40;1.00
10873;DHT22;34586;53.616;10.032;2023-06-19T03:05:25;20.30;1.00
10873;DHT22;34586;53.616;10.032;2023-06-19T03:07:52;20.40;1.00
10873;DHT22;34586;53.616;10.032;2023-06-19T03:10:18;20.40;1.00
10873;DHT22;34586;53.616;10.032;2023-06-19T03:12:43;20.30;1.00
10873;DHT22;34586;53.616;10.032;2023-06-19T03:15:09;20.30;1.00
10873;DHT22;34586;53.616;10.032;2023-06-19T03:17:35;20.30;1.00
10873;DHT22;34586;53.616;10.032;2023-06-19T03:20:00;20.30;1.00
10873;DHT22;34586;53.616;10.032;2023-06-19T03:22:26;20.40;1.00
10873;DHT22;34586;53.616;10.032;2023-06-19T03:24:52;20.30;1.00
10873;DHT22;34586;53.616;10.032;2023-06-19T03:27:17;20.30;1.00
10873;DHT22;34586;53.616;10.032;2023-06-19T03:29:43;20.30;1.00
10873;DHT22;34586;53.616;10.032;2023-06-19T03:32:08;20.30;1.00
10873;DHT22;34586;53.616;10.032;2023-06-19T03:34:34;20.30;1.00
10873;DHT22;34586;53.616;10.032;2023-06-19T03:37:00;20.30;1.00
10873;DHT22;34586;53.616;10.032;2023-06-19T03:39:26;20.30;1.00
10873;DHT22;34586;53.616;10.032;2023-06-19T03:41:51;20.20;9.50
10873;DHT22;34586;53.616;10.032;2023-06-19T03:44:17;20.30;45.90
10873;DHT22;34586;53.616;10.032;2023-06-19T03:46:42;20.30;4.70
10873;DHT22;34586;53.616;10.032;2023-06-19T03:49:08;20.30;1.00
10873;DHT22;34586;53.616;10.032;2023-06-19T03:51:35;20.20;1.00
10873;DHT22;34586;53.616;10.032;2023-06-19T03:54:00;20.30;41.30
10873;DHT22;34586;53.616;10.032;2023-06-19T03:56:26;20.20;31.60
10873;DHT22;34586;53.616;10.032;2023-06-19T03:58:51;20.20;55.90
10873;DHT22;34586;53.616;10.032;2023-06-19T04:01:17;20.20;12.10
10873;DHT22;34586;53.616;10.032;2023-06-19T04:03:42;20.30;12.50
10873;DHT22;34586;53.616;10.032;2023-06-19T04:06:08;20.20;59.20
10873;DHT22;34586;53.616;10.032;2023-06-19T04:08:34;20.20;67.60
10873;DHT22;34586;53.616;10.032;2023-06-19T04:10:59;20.20;31.90
10873;DHT22;34586;53.616;10.032;2023-06-19T04:13:25;20.10;99.30
10873;DHT22;34586;53.616;10.032;2023-06-19T04:15:51;20.10;90.30
10873;DHT22;34586;53.616;10.032;2023-06-19T04:18:17;20.10;82.70
10873;DHT22;34586;53.616;10.032;2023-06-19T04:20:43;20.20;61.70
10873;DHT22;34586;53.616;10.032;2023-06-19T04:23:09;20.10;61.60
10873;DHT22;34586;53.616;10.032;2023-06-19T04:25:34;20.10;92.20
10873;DHT22;34586;53.616;10.032;2023-06-19T04:28:00;20.10;99.50
10873;DHT22;34586;53.616;10.032;2023-06-19T04:30:29;20.10;89.40
10873;DHT22;34586;53.616;10.032;2023-06-19T04:32:54;20.20;99.90
10873;DHT22;34586;53.616;10.032;2023-06-19T04:35:20;20.10;99.90
10873;DHT22;34586;53.616;10.032;2023-06-19T04:37:46;20.20;93.30
10873;DHT22;34586;53.616;10.032;2023-06-19T04:40:14;20.20;51.80
10873;DHT22;34586;53.616;10.032;2023-06-19T04:42:39;20.10;99.90
10873;DHT22;34586;53.616;10.032;2023-06-19T04:45:05;20.10;99.90
10873;DHT22;34586;53.616;10.032;2023-06-19T04:47:35;20.10;99.90
10873;DHT22;34586;53.616;10.032;2023-06-19T04:50:01;20.10;99.90
10873;DHT22;34586;53.616;10.032;2023-06-19T04:52:26;20.10;99.90
10873;DHT22;34586;53.616;10.032;2023-06-19T04:54:52;20.10;99.90
10873;DHT22;34586;53.616;10.032;2023-06-19T04:57:18;20.10;99.90
10873;DHT22;34586;53.616;10.032;2023-06-19T04:59:43;20.10;99.90
10873;DHT22;34586;53.616;10.032;2023-06-19T05:02:10;20.00;99.90
10873;DHT22;34586;53.616;10.032;2023-06-19T05:04:35;20.10;99.90
10873;DHT22;34586;53.616;10.032;2023-06-19T05:07:01;20.10;99.90
10873;DHT22;34586;53.616;10.032;2023-06-19T05:09:28;20.10;99.90
10873;DHT22;34586;53.616;10.032;2023-06-19T05:11:54;20.10;99.90
10873;DHT22;34586;53.616;10.032;2023-06-19T05:14:19;20.10;99.90
10873;DHT22;34586;53.616;10.032;2023-06-19T05:16:45;20.20;97.30
10873;DHT22;34586;53.616;10.032;2023-06-19T05:19:10;20.20;99.90
10873;DHT22;34586;53.616;10.032;2023-06-19T05:21:36;20.20;93.80
10873;DHT22;34586;53.616;10.032;2023-06-19T05:24:02;20.20;80.80
10873;DHT22;34586;53.616;10.032;2023-06-19T05:26:27;20.20;99.90
10873;DHT22;34586;53.616;10.032;2023-06-19T05:28:53;20.30;70.00
10873;DHT22;34586;53.616;10.032;2023-06-19T05:31:19;20.30;93.10
10873;DHT22;34586;53.616;10.032;2023-06-19T05:33:44;20.30;92.10
10873;DHT22;34586;53.616;10.032;2023-06-19T05:36:10;20.30;99.90
10873;DHT22;34586;53.616;10.032;2023-06-19T05:38:37;20.30;99.90
10873;DHT22;34586;53.616;10.032;2023-06-19T05:41:03;20.30;99.90
10873;DHT22;34586;53.616;10.032;2023-06-19T05:43:28;20.30;85.00
10873;DHT22;34586;53.616;10.032;2023-06-19T05:45:54;20.30;99.90
10873;DHT22;34586;53.616;10.032;2023-06-19T05:48:25;20.30;99.90
10873;DHT22;34586;53.616;10.032;2023-06-19T05:50:51;20.30;99.90
10873;DHT22;34586;53.616;10.032;2023-06-19T05:53:16;20.30;99.90
10873;DHT22;34586;53.616;10.032;2023-06-19T05:55:42;20.20;99.90
10873;DHT22;34586;53.616;10.032;2023-06-19T05:58:08;20.30;99.90
10873;DHT22;34586;53.616;10.032;2023-06-19T06:00:34;20.30;99.90
10873;DHT22;34586;53.616;10.032;2023-06-19T06:02:59;20.30;99.90
10873;DHT22;34586;53.616;10.032;2023-06-19T06:05:28;20.30;99.90
10873;DHT22;34586;53.616;10.032;2023-06-19T06:07:54;20.30;99.90
10873;DHT22;34586;53.616;10.032;2023-06-19T06:10:21;20.40;99.90
10873;DHT22;34586;53.616;10.032;2023-06-19T06:12:48;20.50;99.90
10873;DHT22;34586;53.616;10.032;2023-06-19T06:15:14;20.60;99.90
10873;DHT22;34586;53.616;10.032;2023-06-19T06:17:40;20.60;99.90
10873;DHT22;34586;53.616;10.032;2023-06-19T06:20:06;20.70;98.70
10873;DHT22;34586;53.616;10.032;2023-06-19T06:22:37;20.70;99.90
10873;DHT22;34586;53.616;10.032;2023-06-19T06:25:02;20.70;99.90
10873;DHT22;34586;53.616;10.032;2023-06-19T06:27:28;20.80;99.90
10873;DHT22;34586;53.616;10.032;2023-06-19T06:29:53;20.80;99.90
10873;DHT22;34586;53.616;10.032;2023-06-19T06:32:19;20.80;99.90
10873;DHT22;34586;53.616;10.032;2023-06-19T06:34:45;20.80;99.90
10873;DHT22;34586;53.616;10.032;2023-06-19T06:37:10;20.80;99.90
10873;DHT22;34586;53.616;10.032;2023-06-19T06:39:36;20.70;99.90
10873;DHT22;34586;53.616;10.032;2023-06-19T06:42:01;20.60;1.00
10873;DHT22;34586;53.616;10.032;2023-06-19T06:44:27;20.60;1.00
10873;DHT22;34586;53.616;10.032;2023-06-19T06:46:53;20.60;1.00
10873;DHT22;34586;53.616;10.032;2023-06-19T06:49:19;20.60;1.00
10873;DHT22;34586;53.616;10.032;2023-06-19T06:51:45;20.60;1.00
10873;DHT22;34586;53.616;10.032;2023-06-19T06:54:11;20.60;1.00
10873;DHT22;34586;53.616;10.032;2023-06-19T06:56:36;20.70;1.00
10873;DHT22;34586;53.616;10.032;2023-06-19T06:59:02;20.80;1.00
10873;DHT22;34586;53.616;10.032;2023-06-19T07:01:27;20.80;1.00
10873;DHT22;34586;53.616;10.032;2023-06-19T07:03:53;20.80;1.00
10873;DHT22;34586;53.616;10.032;2023-06-19T07:06:19;20.70;1.00
10873;DHT22;34586;53.616;10.032;2023-06-19T07:08:44;20.60;1.00
10873;DHT22;34586;53.616;10.032;2023-06-19T07:11:13;20.60;1.00
10873;DHT22;34586;53.616;10.032;2023-06-19T07:13:38;20.60;1.00
10873;DHT22;34586;53.616;10.032;2023-06-19T07:16:05;20.70;1.00
10873;DHT22;34586;53.616;10.032;2023-06-19T07:18:31;20.80;1.00
10873;DHT22;34586;53.616;10.032;2023-06-19T07:20:58;21.00;1.00
10873;DHT22;34586;53.616;10.032;2023-06-19T07:23:24;21.10;1.00
10873;DHT22;34586;53.616;10.032;2023-06-19T07:25:50;21.10;1.00
10873;DHT22;34586;53.616;10.032;2023-06-19T07:28:15;21.10;1.00
10873;DHT22;34586;53.616;10.032;2023-06-19T07:30:41;21.20;1.00
10873;DHT22;34586;53.616;10.032;2023-06-19T07:33:07;21.10;1.00
10873;DHT22;34586;53.616;10.032;2023-06-19T07:35:32;21.20;1.00
10873;DHT22;34586;53.616;10.032;2023-06-19T07:37:58;21.20;1.00
10873;DHT22;34586;53.616;10.032;2023-06-19T07:40:23;21.30;1.00
10873;DHT22;34586;53.616;10.032;2023-06-19T07:42:49;21.30;1.00
10873;DHT22;34586;53.616;10.032;2023-06-19T07:45:14;21.40;1.00
10873;DHT22;34586;53.616;10.032;2023-06-19T07:47:40;21.40;1.00
10873;DHT22;34586;53.616;10.032;2023-06-19T07:50:06;21.30;1.00
10873;DHT22;34586;53.616;10.032;2023-06-19T07:52:31;21.30;1.00
10873;DHT22;34586;53.616;10.032;2023-06-19T07:54:58;21.50;1.00
10873;DHT22;34586;53.616;10.032;2023-06-19T07:57:24;21.60;1.00
10873;DHT22;34586;53.616;10.032;2023-06-19T07:59:52;21.70;1.00
10873;DHT22;34586;53.616;10.032;2023-06-19T08:02:17;21.60;1.00
10873;DHT22;34586;53.616;10.032;2023-06-19T08:04:44;21.60;99.90
10873;DHT22;34586;53.616;10.032;2023-06-19T08:07:10;21.70;99.90
10873;DHT22;34586;53.616;10.032;2023-06-19T08:09:35;21.70;99.90
10873;DHT22;34586;53.616;10.032;2023-06-19T08:12:02;21.90;99.90
10873;DHT22;34586;53.616;10.032;2023-06-19T08:14:28;22.00;99.90
10873;DHT22;34586;53.616;10.032;2023-06-19T08:16:54;22.30;99.90
10873;DHT22;34586;53.616;10.032;2023-06-19T08:19:20;22.50;99.90
10873;DHT22;34586;53.616;10.032;2023-06-19T08:21:46;22.70;37.80
10873;DHT22;34586;53.616;10.032;2023-06-19T08:24:11;22.80;42.90
10873;DHT22;34586;53.616;10.032;2023-06-19T08:26:37;22.80;83.70
10873;DHT22;34586;53.616;10.032;2023-06-19T08:29:02;22.80;1.00
10873;DHT22;34586;53.616;10.032;2023-06-19T08:31:28;22.70;1.00
10873;DHT22;34586;53.616;10.032;2023-06-19T08:33:55;22.90;1.00
10873;DHT22;34586;53.616;10.032;2023-06-19T08:36:21;22.90;1.00
10873;DHT22;34586;53.616;10.032;2023-06-19T08:38:46;23.10;1.00
10873;DHT22;34586;53.616;10.032;2023-06-19T08:41:19;23.20;1.00
10873;DHT22;34586;53.616;10.032;2023-06-19T08:43:45;23.20;1.00
10873;DHT22;34586;53.616;10.032;2023-06-19T08:46:18;23.30;1.00
10873;DHT22;34586;53.616;10.032;2023-06-19T08:48:44;23.30;1.00
10873;DHT22;34586;53.616;10.032;2023-06-19T08:51:11;23.30;1.00
10873;DHT22;34586;53.616;10.032;2023-06-19T08:53:49;23.50;1.00
10873;DHT22;34586;53.616;10.032;2023-06-19T08:56:18;23.80;1.00
10873;DHT22;34586;53.616;10.032;2023-06-19T08:58:44;23.90;1.00
10873;DHT22;34586;53.616;10.032;2023-06-19T09:01:09;24.00;1.00
10873;DHT22;34586;53.616;10.032;2023-06-19T09:03:35;24.10;1.00
10873;DHT22;34586;53.616;10.032;2023-06-19T09:06:07;24.20;1.00
10873;DHT22;34586;53.616;10.032;2023-06-19T09:08:33;24.40;1.00
10873;DHT22;34586;53.616;10.032;2023-06-19T09:11:03;24.60;1.00
10873;DHT22;34586;53.616;10.032;2023-06-19T09:13:30;24.90;1.00
10873;DHT22;34586;53.616;10.032;2023-06-19T09:16:04;25.00;1.00
10873;DHT22;34586;53.616;10.032;2023-06-19T09:19:02;25.20;1.00
10873;DHT22;34586;53.616;10.032;2023-06-19T09:21:28;25.40;1.00
10873;DHT22;34586;53.616;10.032;2023-06-19T09:23:54;25.50;1.00
10873;DHT22;34586;53.616;10.032;2023-06-19T09:26:20;25.60;1.00
10873;DHT22;34586;53.616;10.032;2023-06-19T09:28:46;25.70;99.90
10873;DHT22;34586;53.616;10.032;2023-06-19T09:31:12;26.00;28.40
10873;DHT22;34586;53.616;10.032;2023-06-19T09:33:39;26.00;1.00
10873;DHT22;34586;53.616;10.032;2023-06-19T09:36:06;26.20;1.00
10873;DHT22;34586;53.616;10.032;2023-06-19T09:38:34;26.40;88.20
10873;DHT22;34586;53.616;10.032;2023-06-19T09:41:01;26.30;1.00
10873;DHT22;34586;53.616;10.032;2023-06-19T09:43:42;26.40;1.00
10873;DHT22;34586;53.616;10.032;2023-06-19T09:46:09;26.50;1.00
10873;DHT22;34586;53.616;10.032;2023-06-19T09:48:44;26.70;1.00
10873;DHT22;34586;53.616;10.032;2023-06-19T09:51:12;26.80;1.00
10873;DHT22;34586;53.616;10.032;2023-06-19T09:53:46;27.10;99.90
10873;DHT22;34586;53.616;10.032;2023-06-19T09:56:13;27.20;1.00
10873;DHT22;34586;53.616;10.032;2023-06-19T09:58:43;27.20;1.00
10873;DHT22;34586;53.616;10.032;2023-06-19T10:01:10;27.30;1.00
10873;DHT22;34586;53.616;10.032;2023-06-19T10:03:36;27.40;1.00
10873;DHT22;34586;53.616;10.032;2023-06-19T10:06:03;27.50;99.10
10873;DHT22;34586;53.616;10.032;2023-06-19T10:08:42;27.40;95.70
10873;DHT22;34586;53.616;10.032;2023-06-19T10:11:08;27.50;1.00
10873;DHT22;34586;53.616;10.032;2023-06-19T10:13:36;27.50;1.00
10873;DHT22;34586;53.616;10.032;2023-06-19T10:16:04;27.20;1.00
10873;DHT22;34586;53.616;10.032;2023-06-19T10:18:31;27.30;1.00
10873;DHT22;34586;53.616;10.032;2023-06-19T10:20:57;27.20;1.00
10873;DHT22;34586;53.616;10.032;2023-06-19T10:23:25;27.30;1.00
10873;DHT22;34586;53.616;10.032;2023-06-19T10:25:56;27.30;1.00
10873;DHT22;34586;53.616;10.032;2023-06-19T10:28:25;27.30;1.00
10873;DHT22;34586;53.616;10.032;2023-06-19T10:33:28;27.60;99.90
10873;DHT22;34586;53.616;10.032;2023-06-19T10:35:54;27.40;99.90
10873;DHT22;34586;53.616;10.032;2023-06-19T10:38:20;27.50;99.90
10873;DHT22;34586;53.616;10.032;2023-06-19T10:40:46;27.50;99.90
10873;DHT22;34586;53.616;10.032;2023-06-19T10:43:12;27.50;99.90
10873;DHT22;34586;53.616;10.032;2023-06-19T10:45:38;27.40;99.90
10873;DHT22;34586;53.616;10.032;2023-06-19T10:48:04;27.20;99.90
10873;DHT22;34586;53.616;10.032;2023-06-19T10:50:34;27.10;99.90
10873;DHT22;34586;53.616;10.032;2023-06-19T10:53:04;27.10;99.90
10873;DHT22;34586;53.616;10.032;2023-06-19T10:55:33;27.20;99.90
10873;DHT22;34586;53.616;10.032;2023-06-19T10:57:59;27.40;99.90
10873;DHT22;34586;53.616;10.032;2023-06-19T11:00:29;27.70;99.90
10873;DHT22;34586;53.616;10.032;2023-06-19T11:02:56;28.10;99.90
10873;DHT22;34586;53.616;10.032;2023-06-19T11:05:25;28.50;99.90
10873;DHT22;34586;53.616;10.032;2023-06-19T11:07:52;28.50;99.90
10873;DHT22;34586;53.616;10.032;2023-06-19T11:10:20;28.70;99.90
10873;DHT22;34586;53.616;10.032;2023-06-19T11:12:46;28.80;99.90
10873;DHT22;34586;53.616;10.032;2023-06-19T11:15:12;28.90;99.90
10873;DHT22;34586;53.616;10.032;2023-06-19T11:17:38;28.60;99.90
10873;DHT22;34586;53.616;10.032;2023-06-19T11:20:08;28.60;99.90
10873;DHT22;34586;53.616;10.032;2023-06-19T11:22:38;28.60;99.90
10873;DHT22;34586;53.616;10.032;2023-06-19T11:25:05;28.60;99.90
10873;DHT22;34586;53.616;10.032;2023-06-19T11:27:30;28.70;99.90
10873;DHT22;34586;53.616;10.032;2023-06-19T11:29:57;28.70;99.90
10873;DHT22;34586;53.616;10.032;2023-06-19T11:32:28;29.00;99.90
10873;DHT22;34586;53.616;10.032;2023-06-19T11:34:56;29.30;99.90
10873;DHT22;34586;53.616;10.032;2023-06-19T11:37:23;29.20;76.30
10873;DHT22;34586;53.616;10.032;2023-06-19T11:39:49;29.20;44.00
10873;DHT22;34586;53.616;10.032;2023-06-19T11:42:16;29.30;16.20
10873;DHT22;34586;53.616;10.032;2023-06-19T11:44:59;29.30;99.90
10873;DHT22;34586;53.616;10.032;2023-06-19T11:47:26;29.50;96.50
10873;DHT22;34586;53.616;10.032;2023-06-19T11:49:51;29.90;26.50
10873;DHT22;34586;53.616;10.032;2023-06-19T11:52:17;29.70;12.10
10873;DHT22;34586;53.616;10.032;2023-06-19T11:54:43;29.80;1.00
10873;DHT22;34586;53.616;10.032;2023-06-19T11:57:09;29.50;1.00
10873;DHT22;34586;53.616;10.032;2023-06-19T11:59:41;29.30;1.00
10873;DHT22;34586;53.616;10.032;2023-06-19T12:02:08;29.20;11.60
10873;DHT22;34586;53.616;10.032;2023-06-19T12:04:34;28.90;1.00
10873;DHT22;34586;53.616;10.032;2023-06-19T12:07:00;28.90;1.00
10873;DHT22;34586;53.616;10.032;2023-06-19T12:09:26;29.20;1.00
10873;DHT22;34586;53.616;10.032;2023-06-19T12:11:53;29.60;1.00
10873;DHT22;34586;53.616;10.032;2023-06-19T12:14:18;29.80;1.00
10873;DHT22;34586;53.616;10.032;2023-06-19T12:16:48;30.20;1.00
10873;DHT22;34586;53.616;10.032;2023-06-19T12:19:13;30.30;1.00
10873;DHT22;34586;53.616;10.032;2023-06-19T12:21:39;30.00;99.90
10873;DHT22;34586;53.616;10.032;2023-06-19T12:24:05;29.60;1.00
10873;DHT22;34586;53.616;10.032;2023-06-19T12:26:31;29.40;10.30
10873;DHT22;34586;53.616;10.032;2023-06-19T12:29:05;29.10;1.00
10873;DHT22;34586;53.616;10.032;2023-06-19T12:31:32;28.90;99.60
10873;DHT22;34586;53.616;10.032;2023-06-19T12:33:58;28.80;1.00
10873;DHT22;34586;53.616;10.032;2023-06-19T12:36:24;28.80;1.00
10873;DHT22;34586;53.616;10.032;2023-06-19T12:38:52;28.80;1.00
10873;DHT22;34586;53.616;10.032;2023-06-19T12:41:21;28.50;1.00
10873;DHT22;34586;53.616;10.032;2023-06-19T12:43:47;28.40;1.00
10873;DHT22;34586;53.616;10.032;2023-06-19T12:46:13;28.40;1.00
10873;DHT22;34586;53.616;10.032;2023-06-19T12:48:40;28.60;1.00
10873;DHT22;34586;53.616;10.032;2023-06-19T12:51:06;28.60;1.00
10873;DHT22;34586;53.616;10.032;2023-06-19T12:53:31;28.80;1.00
10873;DHT22;34586;53.616;10.032;2023-06-19T12:55:58;28.80;1.00
10873;DHT22;34586;53.616;10.032;2023-06-19T12:58:23;28.90;99.90
10873;DHT22;34586;53.616;10.032;2023-06-19T13:00:49;29.20;99.90
10873;DHT22;34586;53.616;10.032;2023-06-19T13:03:15;29.70;1.00
10873;DHT22;34586;53.616;10.032;2023-06-19T13:05:40;30.30;99.90
10873;DHT22;34586;53.616;10.032;2023-06-19T13:08:06;30.30;99.90
10873;DHT22;34586;53.616;10.032;2023-06-19T13:10:31;30.30;99.90
10873;DHT22;34586;53.616;10.032;2023-06-19T13:12:57;30.00;99.90
10873;DHT22;34586;53.616;10.032;2023-06-19T13:15:25;29.60;99.90
10873;DHT22;34586;53.616;10.032;2023-06-19T13:17:53;29.20;99.90
10873;DHT22;34586;53.616;10.032;2023-06-19T13:20:18;29.00;99.90
10873;DHT22;34586;53.616;10.032;2023-06-19T13:22:44;28.90;99.90
10873;DHT22;34586;53.616;10.032;2023-06-19T13:25:10;28.80;99.90
10873;DHT22;34586;53.616;10.032;2023-06-19T13:27:35;29.40;99.90
10873;DHT22;34586;53.616;10.032;2023-06-19T13:30:02;30.70;99.90
10873;DHT22;34586;53.616;10.032;2023-06-19T13:32:28;30.60;99.90
10873;DHT22;34586;53.616;10.032;2023-06-19T13:34:53;30.40;99.90
10873;DHT22;34586;53.616;10.032;2023-06-19T13:37:19;29.80;99.90
10873;DHT22;34586;53.616;10.032;2023-06-19T13:39:45;29.10;99.90
10873;DHT22;34586;53.616;10.032;2023-06-19T13:42:11;28.60;99.90
10873;DHT22;34586;53.616;10.032;2023-06-19T13:44:37;28.30;99.90
10873;DHT22;34586;53.616;10.032;2023-06-19T13:47:03;28.10;99.90
10873;DHT22;34586;53.616;10.032;2023-06-19T13:49:29;28.40;99.90
10873;DHT22;34586;53.616;10.032;2023-06-19T13:51:55;29.00;1.00
10873;DHT22;34586;53.616;10.032;2023-06-19T13:54:20;29.30;1.00
10873;DHT22;34586;53.616;10.032;2023-06-19T13:56:47;29.10;1.00
10873;DHT22;34586;53.616;10.032;2023-06-19T13:59:13;28.90;1.00
10873;DHT22;34586;53.616;10.032;2023-06-19T14:01:39;29.00;1.00
10873;DHT22;34586;53.616;10.032;2023-06-19T14:04:05;28.80;12.90
10873;DHT22;34586;53.616;10.032;2023-06-19T14:06:31;28.70;99.90
10873;DHT22;34586;53.616;10.032;2023-06-19T14:08:56;29.00;99.90
10873;DHT22;34586;53.616;10.032;2023-06-19T14:11:22;29.00;99.90
10873;DHT22;34586;53.616;10.032;2023-06-19T14:13:47;28.90;99.90
10873;DHT22;34586;53.616;10.032;2023-06-19T14:16:13;28.80;99.90
10873;DHT22;34586;53.616;10.032;2023-06-19T14:18:39;28.50;99.90
10873;DHT22;34586;53.616;10.032;2023-06-19T14:21:04;28.10;99.90
10873;DHT22;34586;53.616;10.032;2023-06-19T14:23:30;27.80;1.00
10873;DHT22;34586;53.616;10.032;2023-06-19T14:25:56;27.40;1.00
10873;DHT22;34586;53.616;10.032;2023-06-19T14:28:22;27.30;1.00
10873;DHT22;34586;53.616;10.032;2023-06-19T14:30:47;27.10;1.00
10873;DHT22;34586;53.616;10.032;2023-06-19T14:33:13;27.00;1.00
10873;DHT22;34586;53.616;10.032;2023-06-19T14:35:42;27.00;1.00
10873;DHT22;34586;53.616;10.032;2023-06-19T14:38:12;27.00;3.90
10873;DHT22;34586;53.616;10.032;2023-06-19T14:40:38;27.10;4.30
10873;DHT22;34586;53.616;10.032;2023-06-19T14:43:04;27.20;12.70
10873;DHT22;34586;53.616;10.032;2023-06-19T14:45:30;27.20;1.00
10873;DHT22;34586;53.616;10.032;2023-06-19T14:47:56;27.20;1.00
10873;DHT22;34586;53.616;10.032;2023-06-19T14:50:21;27.10;1.00
10873;DHT22;34586;53.616;10.032;2023-06-19T14:52:47;27.00;9.60
10873;DHT22;34586;53.616;10.032;2023-06-19T14:55:12;26.90;4.30
10873;DHT22;34586;53.616;10.032;2023-06-19T14:57:38;26.70;31.90
10873;DHT22;34586;53.616;10.032;2023-06-19T15:00:04;26.60;58.60
10873;DHT22;34586;53.616;10.032;2023-06-19T15:02:31;26.50;90.60
10873;DHT22;34586;53.616;10.032;2023-06-19T15:04:56;26.60;28.50
10873;DHT22;34586;53.616;10.032;2023-06-19T15:07:22;26.90;1.00
10873;DHT22;34586;53.616;10.032;2023-06-19T15:09:47;27.10;1.00
10873;DHT22;34586;53.616;10.032;2023-06-19T15:12:13;27.30;1.00
10873;DHT22;34586;53.616;10.032;2023-06-19T15:14:38;27.40;1.00
10873;DHT22;34586;53.616;10.032;2023-06-19T15:17:06;27.50;1.00
10873;DHT22;34586;53.616;10.032;2023-06-19T15:19:32;27.50;1.00
10873;DHT22;34586;53.616;10.032;2023-06-19T15:21:57;27.60;1.00
10873;DHT22;34586;53.616;10.032;2023-06-19T15:24:23;27.60;1.00
10873;DHT22;34586;53.616;10.032;2023-06-19T15:26:48;27.70;1.00
10873;DHT22;34586;53.616;10.032;2023-06-19T15:29:14;27.80;1.00